URSS

Sochi International Airport

Sochi, Russian Federation
TAF URSS 210759Z 2109/2209 17005G10MPS 9999 SCT020 SCT100 BECMG 2116/2118 05006MPS BKN015 BECMG 2206/2207 16006G11MPS
Issued Valid From Valid To
Apr-21 @ 07:59 UTC
(2 hours ago)
Apr-21 @ 09:00 UTC
(49 minutes ago)
Apr-22 @ 09:00 UTC
(in 23 hours)
Apr-21 @ 09:00 to Apr-21 @ 16:00
TAF URSS 210759Z 2109/2209 17005G10MPS 9999 SCT020 SCT100
Wind Visibility Clouds
170° at 10 knots
 Gusting to 19 knots
10,000+ meters
  • Scattered at 2,000' AGL
  • Scattered at 10,000' AGL
Becoming Apr-21 @ 16:00 to Apr-22 @ 06:00
BECMG 2116/2118 05006MPS BKN015
Wind Visibility Clouds
50° at 12 knots 10,000+ meters
  • Broken at 1,500' AGL
Becoming Apr-22 @ 06:00 to Apr-22 @ 09:00
BECMG 2206/2207 16006G11MPS
Wind Visibility Clouds
160° at 12 knots
 Gusting to 21 knots
10,000+ meters
  • Broken at 1,500' AGL
TAF URSS 210759Z 2109/2209 17005G10MPS 9999 SCT020 SCT100 BECMG 2116/2118 05006MPS BKN015 BECMG 2206/2207 16006G11MPS
Issued Apr-21 @ 07:59 UTC
(2 hours ago)
Valid From Apr-21 @ 09:00 UTC
(49 minutes ago)
Valid To Apr-22 @ 09:00 UTC
(in 23 hours)
Apr-21 @ 09:00 - Apr-21 @ 16:00
Wind Visibility
170° at 10 knots
 Gusting to 19 knots
10,000+ meters
Clouds
  • Scattered at 2,000' AGL
  • Scattered at 10,000' AGL
Becoming Apr-21 @ 16:00 - Apr-22 @ 06:00
Wind Visibility
50° at 12 knots 10,000+ meters
Clouds
  • Broken at 1,500' AGL
Becoming Apr-22 @ 06:00 - Apr-22 @ 09:00
Wind Visibility
160° at 12 knots
 Gusting to 21 knots
10,000+ meters
Clouds
  • Broken at 1,500' AGL